Time;durP1;ratioP1;P1;durP2;ratioP2;P2;SDS_P1;SDS_P2;PMS_P1;PMS_P2;Temp;Humidity;BMP_temperature;BMP_pressure;BME280_temperature;BME280_humidity;BME280_pressure;Samples;Min_cycle;Max_cycle;Signal;HPM_P1;HPM_P2
2023/06/01 00:00:02;;;;;;;16.67;6.15;;;;;;;18.45;57.09;100912.97;4995447;28;20038;-48
2023/06/01 00:02:28;;;;;;;25.40;7.28;;;;;;;18.38;55.72;100911.56;4995273;28;20386;-45
2023/06/01 00:04:55;;;;;;;19.30;6.03;;;;;;;18.34;56.67;100918.56;4995272;28;20069;-48
2023/06/01 00:07:23;;;;;;;22.83;6.90;;;;;;;18.53;55.90;100914.41;4995264;28;20029;-48
2023/06/01 00:09:49;;;;;;;25.13;6.88;;;;;;;18.59;55.82;100905.22;4995292;28;20390;-50
2023/06/01 00:12:16;;;;;;;20.15;6.32;;;;;;;18.54;55.92;100907.06;4995412;28;20538;-50
2023/06/01 00:14:42;;;;;;;20.27;6.18;;;;;;;18.47;56.53;100905.41;4995187;28;20386;-47
2023/06/01 00:17:09;;;;;;;23.00;7.05;;;;;;;18.22;56.27;100899.75;4995100;28;20029;-48
2023/06/01 00:19:35;;;;;;;27.80;7.00;;;;;;;18.00;57.00;100907.09;4995369;28;20088;-46
2023/06/01 00:22:02;;;;;;;24.48;7.05;;;;;;;18.19;57.85;100905.66;4994926;28;20031;-46
2023/06/01 00:24:28;;;;;;;25.42;7.53;;;;;;;18.05;56.81;100912.56;4995000;28;20029;-49
2023/06/01 00:26:54;;;;;;;20.42;5.97;;;;;;;17.86;57.73;100902.03;4995296;28;20431;-46
2023/06/01 00:29:21;;;;;;;25.60;6.55;;;;;;;17.81;58.90;100898.47;5009901;28;20109;-49
2023/06/01 00:31:47;;;;;;;21.15;7.43;;;;;;;17.87;58.35;100902.84;4995227;28;20038;-46
2023/06/01 00:34:13;;;;;;;21.95;6.10;;;;;;;17.69;58.26;100906.69;4994667;28;20030;-49
2023/06/01 00:36:39;;;;;;;17.63;6.70;;;;;;;17.62;58.24;100901.47;4994592;28;20080;-47
2023/06/01 00:39:05;;;;;;;20.27;6.25;;;;;;;17.50;59.32;100899.94;4994698;28;20114;-47
2023/06/01 00:41:33;;;;;;;20.42;7.25;;;;;;;17.41;60.01;100892.25;4994484;28;20038;-47
2023/06/01 00:43:59;;;;;;;26.95;6.93;;;;;;;17.40;59.24;100892.50;4994686;28;20030;-49
2023/06/01 00:46:26;;;;;;;21.75;6.25;;;;;;;17.53;59.64;100889.41;4994101;28;20110;-46
2023/06/01 00:48:54;;;;;;;21.27;7.35;;;;;;;17.07;60.85;100886.09;4994120;28;20033;-46
2023/06/01 00:51:20;;;;;;;21.85;6.78;;;;;;;17.26;61.02;100881.19;4994348;28;20475;-49
2023/06/01 00:53:47;;;;;;;24.20;7.10;;;;;;;17.41;60.31;100888.72;4994846;28;20128;-49
2023/06/01 00:56:13;;;;;;;23.90;7.13;;;;;;;17.24;61.60;100874.41;4994676;28;20030;-47
2023/06/01 00:58:40;;;;;;;21.17;6.72;;;;;;;17.23;61.06;100875.50;4994066;28;20101;-47
2023/06/01 01:01:07;;;;;;;32.92;8.05;;;;;;;16.86;62.28;100879.53;4994264;28;20038;-49
2023/06/01 01:03:38;;;;;;;25.52;8.13;;;;;;;16.98;62.85;100868.63;4994122;28;20037;-46
2023/06/01 01:06:28;;;;;;;21.42;7.57;;;;;;;17.10;62.71;100872.06;4994104;28;20031;-49
2023/06/01 01:09:08;;;;;;;31.73;8.05;;;;;;;16.95;62.48;100874.56;4994542;28;20022;-46
2023/06/01 01:11:37;;;;;;;27.05;7.88;;;;;;;16.99;62.61;100877.56;4994175;28;20027;-50
2023/06/01 01:14:16;;;;;;;22.63;7.40;;;;;;;16.81;63.62;100878.63;4994113;28;20582;-48
2023/06/01 01:16:56;;;;;;;23.92;7.80;;;;;;;16.71;63.49;100881.16;4994344;28;20471;-49
2023/06/01 01:19:42;;;;;;;29.50;8.43;;;;;;;16.76;64.08;100870.44;4993926;28;20019;-45
2023/06/01 01:22:39;;;;;;;21.65;7.70;;;;;;;17.04;62.55;100878.44;4993835;28;20022;-46
2023/06/01 01:25:18;;;;;;;28.40;8.57;;;;;;;16.98;62.68;100865.09;4994030;28;20058;-48
2023/06/01 01:28:06;;;;;;;27.77;8.35;;;;;;;17.08;63.03;100862.56;4993992;28;20050;-46
2023/06/01 01:30:36;;;;;;;26.73;7.85;;;;;;;17.04;62.60;100856.81;4982930;28;20030;-47
2023/06/01 01:33:03;;;;;;;22.10;7.50;;;;;;;17.13;61.99;100859.94;4994625;28;20034;-46
2023/06/01 01:35:32;;;;;;;33.28;8.90;;;;;;;17.15;62.15;100852.38;4993530;28;20022;-49
2023/06/01 01:37:58;;;;;;;27.10;8.48;;;;;;;17.38;62.18;100857.59;4993688;28;20038;-48
2023/06/01 01:40:25;;;;;;;28.05;8.70;;;;;;;16.99;61.99;100859.47;4993826;28;20022;-54
2023/06/01 01:42:52;;;;;;;24.13;7.95;;;;;;;17.17;61.95;100852.16;4993677;28;20027;-54
2023/06/01 01:45:20;;;;;;;28.92;9.48;;;;;;;17.20;61.97;100854.34;4993949;28;20040;-55
2023/06/01 01:48:09;;;;;;;26.98;8.60;;;;;;;17.19;61.64;100852.72;4993575;28;20050;-51
2023/06/01 01:51:03;;;;;;;28.88;8.80;;;;;;;17.19;62.15;100848.09;4993695;28;20387;-51
2023/06/01 01:53:30;;;;;;;25.80;8.43;;;;;;;17.40;60.97;100855.44;4993506;28;20037;-48
2023/06/01 01:55:58;;;;;;;26.60;8.48;;;;;;;16.99;62.34;100854.06;4993190;28;20027;-54
2023/06/01 01:58:26;;;;;;;23.35;7.80;;;;;;;17.20;61.90;100859.75;4993150;28;20029;-51
2023/06/01 02:00:54;;;;;;;30.73;8.10;;;;;;;17.17;61.66;100861.06;4993739;28;20050;-52
2023/06/01 02:03:20;;;;;;;25.40;8.88;;;;;;;17.10;60.98;100858.56;4993831;28;20057;-52
2023/06/01 02:05:46;;;;;;;22.80;8.25;;;;;;;17.24;60.98;100860.91;4993638;28;20455;-52
2023/06/01 02:08:13;;;;;;;24.40;8.07;;;;;;;17.14;61.25;100850.75;4993471;28;20053;-52
2023/06/01 02:10:40;;;;;;;30.63;8.27;;;;;;;17.02;61.43;100853.56;4993314;28;20027;-51
2023/06/01 02:13:07;;;;;;;22.30;7.40;;;;;;;17.03;61.52;100844.38;4993846;28;20104;-52
2023/06/01 02:15:33;;;;;;;25.23;8.10;;;;;;;16.97;61.59;100849.97;4993450;28;20177;-51
2023/06/01 02:17:59;;;;;;;31.83;8.32;;;;;;;16.93;62.11;100855.03;4993849;28;20019;-50
2023/06/01 02:20:26;;;;;;;22.80;8.20;;;;;;;16.78;61.90;100849.41;4993432;28;20057;-51
2023/06/01 02:22:52;;;;;;;23.48;7.30;;;;;;;16.66;62.27;100856.72;4993292;28;20030;-49
2023/06/01 02:25:19;;;;;;;28.52;9.73;;;;;;;16.54;62.21;100864.91;4993766;28;20073;-48
2023/06/01 02:27:45;;;;;;;31.10;8.10;;;;;;;16.43;62.89;100866.63;4993230;28;20391;-53
2023/06/01 02:30:12;;;;;;;25.65;8.57;;;;;;;16.57;62.62;100864.44;4993311;28;20049;-51
2023/06/01 02:32:38;;;;;;;27.85;8.40;;;;;;;16.58;62.45;100861.50;4993232;28;20039;-52
2023/06/01 02:35:06;;;;;;;30.70;8.25;;;;;;;16.31;63.26;100857.78;4993278;28;20029;-51
2023/06/01 02:37:33;;;;;;;34.20;9.25;;;;;;;16.10;63.86;100862.84;4992986;28;20034;-50
2023/06/01 02:39:59;;;;;;;25.80;8.68;;;;;;;16.20;63.75;100853.25;4993169;28;20030;-49
2023/06/01 02:42:25;;;;;;;26.98;8.88;;;;;;;15.83;64.83;100856.38;4993060;28;20054;-52
2023/06/01 02:44:51;;;;;;;29.88;8.20;;;;;;;15.72;65.65;100854.53;4993359;28;20438;-50
2023/06/01 02:47:17;;;;;;;27.77;8.77;;;;;;;15.53;66.38;100862.75;4993210;28;20109;-52
2023/06/01 02:49:44;;;;;;;30.88;8.95;;;;;;;15.52;66.04;100863.00;4993574;28;20044;-52
2023/06/01 02:52:10;;;;;;;30.10;8.55;;;;;;;15.40;66.24;100873.81;4993036;28;20031;-51
2023/06/01 02:54:37;;;;;;;29.05;9.65;;;;;;;14.98;67.57;100876.63;4993340;28;20023;-49
2023/06/01 02:57:03;;;;;;;34.83;11.32;;;;;;;14.82;68.14;100877.31;4993088;28;20061;-49
2023/06/01 02:59:29;;;;;;;41.15;9.90;;;;;;;14.62;69.27;100882.25;4992926;28;20027;-49
2023/06/01 03:01:56;;;;;;;36.15;9.52;;;;;;;14.49;69.81;100873.31;4993051;28;20437;-49
2023/06/01 03:04:22;;;;;;;34.80;10.65;;;;;;;14.47;69.82;100864.63;4992919;28;20485;-49
2023/06/01 03:06:49;;;;;;;27.17;9.80;;;;;;;14.25;70.33;100861.63;4993290;28;20467;-50
2023/06/01 03:09:15;;;;;;;37.60;10.02;;;;;;;13.92;71.91;100872.03;4995903;28;20085;-49
2023/06/01 03:11:42;;;;;;;46.45;11.38;;;;;;;13.83;72.93;100876.91;4996303;28;20390;-49
2023/06/01 03:14:09;;;;;;;34.83;10.77;;;;;;;13.93;72.59;100877.16;4996299;28;20395;-48
2023/06/01 03:16:35;;;;;;;29.73;10.60;;;;;;;13.69;73.16;100862.78;4996270;28;20034;-48
2023/06/01 03:19:02;;;;;;;38.78;11.00;;;;;;;13.67;73.34;100866.75;4996145;28;20037;-50
2023/06/01 03:21:28;;;;;;;39.78;10.85;;;;;;;13.67;73.38;100864.06;4996273;28;20474;-48
2023/06/01 03:23:55;;;;;;;33.30;10.77;;;;;;;13.55;73.72;100865.84;4996456;28;20121;-48
2023/06/01 03:26:21;;;;;;;42.10;11.00;;;;;;;13.45;74.38;100861.03;4996110;28;20441;-50
2023/06/01 03:28:48;;;;;;;36.53;10.90;;;;;;;13.45;74.41;100859.16;4995997;28;20034;-47
2023/06/01 03:31:14;;;;;;;31.02;10.88;;;;;;;13.44;74.56;100864.75;4996083;28;20022;-49
2023/06/01 03:33:40;;;;;;;30.33;10.75;;;;;;;13.29;75.19;100867.00;4996331;28;20026;-48
2023/06/01 03:36:07;;;;;;;32.92;10.13;;;;;;;13.30;75.30;100860.56;4995910;28;20113;-49
2023/06/01 03:38:34;;;;;;;34.22;10.98;;;;;;;13.25;75.76;100857.72;4995900;28;20030;-48
2023/06/01 03:41:01;;;;;;;36.85;10.30;;;;;;;13.18;76.41;100860.44;4996122;28;20029;-48
2023/06/01 03:43:27;;;;;;;40.80;11.52;;;;;;;13.31;75.75;100854.13;4995958;28;20041;-48
2023/06/01 03:45:53;;;;;;;29.50;9.88;;;;;;;13.19;76.04;100873.66;4996084;28;20061;-49
2023/06/01 03:48:19;;;;;;;37.83;11.05;;;;;;;13.12;76.13;100867.53;4995810;28;20077;-49
2023/06/01 03:50:46;;;;;;;38.42;11.20;;;;;;;13.10;75.66;100875.00;4995852;28;20022;-50
2023/06/01 03:53:12;;;;;;;40.58;10.93;;;;;;;13.09;75.98;100872.53;4995748;28;20034;-52
2023/06/01 03:55:38;;;;;;;37.00;10.73;;;;;;;13.00;76.64;100871.19;4995816;28;20023;-50
2023/06/01 03:58:07;;;;;;;35.33;11.15;;;;;;;12.94;76.48;100873.72;4995601;28;20483;-52
2023/06/01 04:00:33;;;;;;;41.78;11.15;;;;;;;12.94;76.53;100870.19;4995584;28;20077;-51
2023/06/01 04:03:03;;;;;;;38.45;10.50;;;;;;;13.00;76.31;100880.06;4995758;28;20049;-52
2023/06/01 04:05:30;;;;;;;33.45;9.48;;;;;;;12.96;77.06;100884.22;4995530;28;20076;-52
2023/06/01 04:07:56;;;;;;;39.50;11.35;;;;;;;13.09;76.61;100881.41;4995745;28;20030;-48
2023/06/01 04:10:23;;;;;;;35.00;10.60;;;;;;;13.03;76.98;100884.16;4995419;28;20026;-49
2023/06/01 04:12:50;;;;;;;34.50;10.98;;;;;;;13.08;76.15;100882.44;4995319;28;20046;-50
2023/06/01 04:15:18;;;;;;;48.53;12.45;;;;;;;12.85;76.96;100888.44;4995285;28;20035;-50
2023/06/01 04:17:44;;;;;;;31.80;10.13;;;;;;;12.98;76.59;100882.13;4996028;28;20026;-50
2023/06/01 04:20:13;;;;;;;30.35;9.52;;;;;;;12.99;76.40;100893.69;4994362;28;20517;-52
2023/06/01 04:22:40;;;;;;;37.10;10.88;;;;;;;12.89;76.51;100884.28;4995040;28;20082;-52
2023/06/01 04:25:11;;;;;;;43.58;11.10;;;;;;;12.86;76.88;100887.41;4995056;28;20027;-52
2023/06/01 04:27:44;;;;;;;35.83;11.15;;;;;;;12.88;76.95;100889.84;4995486;28;20026;-51
2023/06/01 04:30:12;;;;;;;42.72;11.27;;;;;;;12.81;77.62;100889.91;4994968;28;20045;-52
2023/06/01 04:32:38;;;;;;;37.22;10.85;;;;;;;12.84;77.56;100888.69;4995160;28;20053;-53
2023/06/01 04:35:06;;;;;;;38.67;11.40;;;;;;;12.78;77.74;100897.63;4994914;28;20097;-52
2023/06/01 04:37:40;;;;;;;36.60;11.32;;;;;;;12.87;77.09;100889.03;4994627;28;20121;-53
2023/06/01 04:40:10;;;;;;;40.30;11.50;;;;;;;12.81;77.15;100889.91;4994752;28;20066;-53
2023/06/01 04:42:41;;;;;;;38.60;10.70;;;;;;;12.77;77.33;100893.25;4994725;28;20068;-53
2023/06/01 04:45:13;;;;;;;37.08;10.68;;;;;;;12.74;77.25;100891.84;4994740;28;20026;-54
2023/06/01 04:47:39;;;;;;;41.05;11.32;;;;;;;12.72;77.62;100898.50;4994940;28;20022;-54
2023/06/01 04:50:10;;;;;;;37.65;10.52;;;;;;;12.73;77.46;100897.44;4994529;28;20496;-53
2023/06/01 04:52:38;;;;;;;39.10;10.80;;;;;;;12.76;77.67;100894.31;4994578;28;20062;-54
2023/06/01 04:55:05;;;;;;;42.13;12.13;;;;;;;12.76;77.68;100894.31;4994619;28;20101;-54
2023/06/01 04:57:33;;;;;;;39.05;11.45;;;;;;;12.74;77.85;100901.78;4994890;28;20117;-53
2023/06/01 05:00:00;;;;;;;36.85;11.05;;;;;;;12.74;77.56;100905.28;4994640;28;20030;-53
2023/06/01 05:02:28;;;;;;;37.38;11.77;;;;;;;12.73;77.23;100909.00;4994913;28;20034;-53
2023/06/01 05:04:55;;;;;;;37.53;11.07;;;;;;;12.68;77.46;100904.28;4994392;28;20088;-53
2023/06/01 05:07:21;;;;;;;39.78;11.85;;;;;;;12.65;77.99;100911.94;4994603;28;20034;-50
2023/06/01 05:09:48;;;;;;;45.72;11.80;;;;;;;12.58;77.92;100909.31;4994519;28;20026;-50
2023/06/01 05:12:14;;;;;;;44.78;11.88;;;;;;;12.57;78.20;100912.22;4994357;28;20031;-52
2023/06/01 05:14:41;;;;;;;41.25;11.50;;;;;;;12.54;78.00;100900.03;4994642;28;20028;-54
2023/06/01 05:17:07;;;;;;;39.35;10.43;;;;;;;12.60;77.92;100909.09;4994432;28;20019;-51
2023/06/01 05:19:33;;;;;;;36.20;10.95;;;;;;;12.49;78.55;100913.28;4994324;28;20054;-53
2023/06/01 05:21:59;;;;;;;43.63;10.57;;;;;;;12.52;78.65;100909.38;4993883;28;20073;-54
2023/06/01 05:24:26;;;;;;;37.88;10.43;;;;;;;12.60;77.95;100915.31;4994194;28;20038;-54
2023/06/01 05:26:52;;;;;;;39.72;11.40;;;;;;;12.47;78.24;100919.94;4994264;28;20045;-53
2023/06/01 05:29:18;;;;;;;31.33;10.25;;;;;;;12.49;78.15;100910.59;4993851;28;20026;-53
2023/06/01 05:31:46;;;;;;;37.40;10.98;;;;;;;12.52;78.05;100909.38;4993889;28;20053;-53
2023/06/01 05:34:13;;;;;;;51.45;12.15;;;;;;;12.48;78.00;100913.50;4993883;28;20022;-54
2023/06/01 05:36:39;;;;;;;38.22;11.50;;;;;;;12.51;77.82;100913.09;4993789;28;20399;-53
2023/06/01 05:39:06;;;;;;;38.83;11.15;;;;;;;12.52;77.82;100909.38;4993891;28;20068;-54
2023/06/01 05:41:32;;;;;;;47.92;12.00;;;;;;;12.50;78.45;100923.00;4993784;28;20034;-54
2023/06/01 05:43:58;;;;;;;44.03;12.45;;;;;;;12.51;78.32;100918.47;4993748;28;20038;-53
2023/06/01 05:46:25;;;;;;;38.88;11.65;;;;;;;12.56;77.87;100924.00;4993749;28;20095;-51
2023/06/01 05:48:51;;;;;;;36.70;10.70;;;;;;;12.59;77.98;100915.50;4993730;28;20054;-51
2023/06/01 05:51:18;;;;;;;39.95;11.00;;;;;;;12.56;78.15;100915.97;4993503;28;20027;-54
2023/06/01 05:53:44;;;;;;;45.35;11.00;;;;;;;12.52;78.55;100915.56;4993895;28;20027;-53
2023/06/01 05:56:10;;;;;;;35.63;10.95;;;;;;;12.50;78.45;100911.47;4993812;28;20034;-52
2023/06/01 05:58:37;;;;;;;37.42;10.73;;;;;;;12.48;78.55;100918.88;4993707;28;20479;-53
2023/06/01 06:01:03;;;;;;;38.92;11.50;;;;;;;12.54;78.49;100915.31;4993556;28;20161;-50
2023/06/01 06:03:29;;;;;;;43.95;11.43;;;;;;;12.45;78.85;100917.47;4993728;28;20375;-52
2023/06/01 06:05:55;;;;;;;43.13;11.57;;;;;;;12.49;78.28;100913.28;4993860;28;20027;-52
2023/06/01 06:08:22;;;;;;;33.50;11.05;;;;;;;12.47;78.40;100912.69;4993420;28;20022;-52
2023/06/01 06:10:48;;;;;;;35.92;10.70;;;;;;;12.46;78.88;100912.91;4993813;28;20034;-52
2023/06/01 06:13:15;;;;;;;45.65;11.57;;;;;;;12.36;79.15;100916.88;4993306;28;20030;-51
2023/06/01 06:15:41;;;;;;;36.55;10.25;;;;;;;12.39;78.55;100916.47;4993592;28;20048;-50
2023/06/01 06:18:07;;;;;;;42.45;11.38;;;;;;;12.37;78.52;100928.44;4993322;28;20069;-51
2023/06/01 06:20:33;;;;;;;42.58;11.25;;;;;;;12.39;78.37;100921.03;4993400;28;20023;-50
2023/06/01 06:22:59;;;;;;;37.50;11.13;;;;;;;12.38;78.34;100920.19;4993252;28;20034;-49
2023/06/01 06:25:26;;;;;;;40.13;11.32;;;;;;;12.44;78.34;100918.50;4993518;28;20030;-52
2023/06/01 06:27:52;;;;;;;36.67;11.77;;;;;;;12.41;78.37;100914.38;4993470;28;20062;-52
2023/06/01 06:30:19;;;;;;;38.53;10.85;;;;;;;12.41;78.46;100918.94;4993479;28;20431;-51
2023/06/01 06:32:45;;;;;;;45.28;12.30;;;;;;;12.47;78.61;100911.88;4993251;28;20415;-51
2023/06/01 06:35:12;;;;;;;41.40;11.63;;;;;;;12.48;78.87;100910.81;5008252;28;20114;-52
2023/06/01 06:37:41;;;;;;;38.60;11.38;;;;;;;12.45;79.08;100909.41;4992883;28;20069;-52
2023/06/01 06:40:08;;;;;;;33.90;10.48;;;;;;;12.45;79.10;100913.97;4993377;28;20026;-52
2023/06/01 06:42:35;;;;;;;37.72;11.02;;;;;;;12.42;78.88;100921.38;4993412;28;20037;-52
2023/06/01 06:45:02;;;;;;;35.45;10.38;;;;;;;12.33;79.05;100922.72;4996871;28;20534;-53
2023/06/01 06:47:28;;;;;;;31.65;10.95;;;;;;;12.45;78.80;100919.34;4996896;28;20030;-51
2023/06/01 06:49:55;;;;;;;44.33;11.82;;;;;;;12.39;78.85;100916.47;4996683;28;20034;-51
2023/06/01 06:52:21;;;;;;;50.95;10.63;;;;;;;12.43;78.81;100920.34;4996557;28;20041;-52
2023/06/01 06:54:47;;;;;;;34.35;10.77;;;;;;;12.49;78.33;100925.91;4996876;28;20072;-52
2023/06/01 06:57:13;;;;;;;42.33;12.05;;;;;;;12.54;78.39;100928.75;4997430;28;20105;-50
2023/06/01 06:59:40;;;;;;;45.65;10.50;;;;;;;12.50;78.54;100916.81;4996522;28;20501;-52
2023/06/01 07:02:06;;;;;;;47.17;12.15;;;;;;;12.47;78.74;100920.75;4996508;28;20037;-51
2023/06/01 07:04:32;;;;;;;37.17;11.23;;;;;;;12.43;79.24;100923.03;4996552;28;20161;-52
2023/06/01 07:07:00;;;;;;;41.15;12.30;;;;;;;12.54;78.38;100921.53;4996886;28;20101;-52
2023/06/01 07:09:26;;;;;;;40.13;11.75;;;;;;;12.44;78.51;100913.16;4996448;28;20105;-52
2023/06/01 07:11:53;;;;;;;42.25;11.48;;;;;;;12.50;78.07;100908.78;4996365;28;20045;-52
2023/06/01 07:14:19;;;;;;;39.40;10.80;;;;;;;12.51;78.38;100916.59;4996317;28;20451;-52
2023/06/01 07:16:45;;;;;;;36.97;11.50;;;;;;;12.47;78.61;100923.44;4996336;28;20030;-50
2023/06/01 07:19:12;;;;;;;39.35;11.25;;;;;;;12.55;78.12;100917.00;4996223;28;20026;-52
2023/06/01 07:21:38;;;;;;;38.75;11.77;;;;;;;12.49;78.25;100926.72;4996093;28;20038;-52
2023/06/01 07:24:05;;;;;;;32.38;10.40;;;;;;;12.57;77.70;100923.78;4996197;28;20081;-49
2023/06/01 07:26:31;;;;;;;37.60;10.35;;;;;;;12.45;78.06;100913.97;4996414;28;20097;-52
2023/06/01 07:28:59;;;;;;;34.30;9.65;;;;;;;12.50;77.91;100917.66;4996158;28;20030;-53
2023/06/01 07:31:27;;;;;;;40.17;12.00;;;;;;;12.37;78.16;100918.53;4995990;28;20049;-50
2023/06/01 07:33:56;;;;;;;48.15;12.18;;;;;;;12.32;78.34;100909.47;4995958;28;20104;-50
2023/06/01 07:36:23;;;;;;;39.85;10.68;;;;;;;12.33;78.87;100906.59;4995732;28;20496;-50
2023/06/01 07:38:52;;;;;;;40.00;11.05;;;;;;;12.32;78.74;100909.47;4996535;28;20026;-52
2023/06/01 07:41:18;;;;;;;48.30;11.13;;;;;;;12.34;78.83;100908.25;4995851;28;20022;-52
2023/06/01 07:43:45;;;;;;;40.72;10.23;;;;;;;12.32;78.64;100915.66;4995960;28;20517;-51
2023/06/01 07:46:11;;;;;;;36.53;10.45;;;;;;;12.34;78.64;100910.94;4995743;28;20438;-50
2023/06/01 07:48:38;;;;;;;37.20;10.48;;;;;;;12.33;79.18;100911.97;4995707;28;20567;-52
2023/06/01 07:51:06;;;;;;;36.92;10.52;;;;;;;12.36;78.92;100903.47;4995792;28;20479;-50
2023/06/01 07:53:33;;;;;;;43.78;11.10;;;;;;;12.38;78.51;100898.72;4995654;28;20026;-54
2023/06/01 07:55:59;;;;;;;40.03;11.70;;;;;;;12.33;78.84;100893.19;4994966;28;20050;-53
2023/06/01 07:58:25;;;;;;;36.92;11.50;;;;;;;12.38;78.96;100900.56;4995569;28;20490;-52
2023/06/01 08:00:52;;;;;;;41.60;11.38;;;;;;;12.31;79.15;100903.28;4995498;28;20026;-52
2023/06/01 08:03:20;;;;;;;46.03;10.93;;;;;;;12.30;79.04;100890.09;4995493;28;20118;-53
2023/06/01 08:05:47;;;;;;;38.85;10.95;;;;;;;12.22;79.62;100898.41;4995387;28;20036;-53
2023/06/01 08:08:14;;;;;;;49.00;11.20;;;;;;;12.29;79.55;100897.31;4995635;28;20030;-53
2023/06/01 08:10:41;;;;;;;36.05;10.70;;;;;;;12.36;78.96;100900.78;4995571;28;20030;-53
2023/06/01 08:13:07;;;;;;;40.13;11.48;;;;;;;12.35;78.93;100899.16;4995219;28;20049;-53
2023/06/01 08:15:36;;;;;;;39.45;11.02;;;;;;;12.29;79.25;100899.19;4995195;28;20079;-54
2023/06/01 08:18:03;;;;;;;33.13;10.23;;;;;;;12.32;78.90;100904.94;4995122;28;20034;-54
2023/06/01 08:20:29;;;;;;;35.45;11.25;;;;;;;12.36;79.18;100906.16;4995069;28;20041;-50
2023/06/01 08:22:56;;;;;;;42.70;11.90;;;;;;;12.36;79.38;100906.16;4994939;28;20026;-52
2023/06/01 08:25:23;;;;;;;51.50;11.43;;;;;;;12.51;78.96;100902.34;4995255;28;20026;-53
2023/06/01 08:27:49;;;;;;;42.63;10.95;;;;;;;12.46;79.00;100902.19;4995497;28;20022;-52
2023/06/01 08:30:16;;;;;;;38.67;10.80;;;;;;;12.49;78.86;100904.41;4994887;28;20033;-51
2023/06/01 08:32:42;;;;;;;43.97;10.95;;;;;;;12.55;78.80;100900.88;4995097;28;20026;-53
2023/06/01 08:35:09;;;;;;;37.00;10.73;;;;;;;12.52;79.21;100898.63;4994830;28;20026;-53
2023/06/01 08:37:36;;;;;;;43.28;10.50;;;;;;;12.53;78.44;100906.44;4994754;28;20426;-52
2023/06/01 08:40:05;;;;;;;41.17;10.77;;;;;;;12.41;78.84;100898.28;4994928;28;20049;-51
2023/06/01 08:42:47;;;;;;;50.25;11.32;;;;;;;12.52;78.32;100888.72;4994637;28;20065;-53
2023/06/01 08:45:14;;;;;;;38.13;11.02;;;;;;;12.56;78.09;100894.47;4995421;28;20105;-53
2023/06/01 08:47:41;;;;;;;49.58;11.80;;;;;;;12.52;78.22;100888.72;4995174;28;20030;-52
2023/06/01 08:50:11;;;;;;;42.03;10.52;;;;;;;12.38;78.02;100874.56;4994612;28;20049;-50
2023/06/01 08:52:39;;;;;;;34.15;11.02;;;;;;;12.46;77.96;100872.66;4994550;28;20049;-50
2023/06/01 08:55:05;;;;;;;38.92;10.38;;;;;;;12.51;77.87;100870.97;4994329;28;20029;-54
2023/06/01 08:57:32;;;;;;;37.78;10.27;;;;;;;12.39;78.41;100873.53;4994418;28;20559;-53
2023/06/01 08:59:59;;;;;;;29.58;10.60;;;;;;;12.50;77.66;100873.88;4994502;28;20080;-53
2023/06/01 09:02:27;;;;;;;41.63;10.25;;;;;;;12.38;78.13;100868.34;4994097;28;20113;-51
2023/06/01 09:04:53;;;;;;;41.60;10.55;;;;;;;12.41;78.29;100870.63;4994201;28;20026;-53
2023/06/01 09:07:20;;;;;;;47.03;12.93;;;;;;;12.29;79.02;100877.72;4994260;28;20018;-51
2023/06/01 09:09:46;;;;;;;35.25;10.38;;;;;;;12.24;79.28;100883.72;4994324;28;20070;-52
2023/06/01 09:12:25;;;;;;;38.45;9.70;;;;;;;12.32;78.62;100888.81;4994263;28;20061;-50
2023/06/01 09:15:16;;;;;;;41.15;11.55;;;;;;;12.28;78.46;100893.00;4993969;28;20081;-53
2023/06/01 09:17:47;;;;;;;31.13;9.23;;;;;;;12.22;78.50;100877.78;4994016;28;20030;-51
2023/06/01 09:20:21;;;;;;;39.15;10.80;;;;;;;12.16;78.75;100875.94;4994324;28;20474;-50
2023/06/01 09:22:48;;;;;;;35.38;9.75;;;;;;;12.25;78.05;100876.50;4994010;28;20181;-52
2023/06/01 09:25:14;;;;;;;38.35;10.48;;;;;;;12.20;78.22;100882.50;4993969;28;20028;-53
2023/06/01 09:27:51;;;;;;;39.05;11.95;;;;;;;12.22;78.60;100875.09;4994198;28;20029;-54
2023/06/01 09:30:20;;;;;;;32.55;9.80;;;;;;;12.09;78.84;100878.66;4993923;28;20029;-54
2023/06/01 09:32:50;;;;;;;33.05;10.18;;;;;;;12.10;79.25;100883.00;4993897;28;20153;-54
2023/06/01 09:35:36;;;;;;;35.97;10.95;;;;;;;12.13;78.76;100885.25;4993701;28;20027;-54
2023/06/01 09:38:05;;;;;;;49.10;11.27;;;;;;;12.24;78.66;100893.66;4993998;28;20037;-52
2023/06/01 09:40:34;;;;;;;34.95;10.65;;;;;;;12.19;78.14;100886.25;4994472;28;20041;-51
2023/06/01 09:43:02;;;;;;;40.45;11.55;;;;;;;12.12;78.14;100880.09;4993636;28;20030;-50
2023/06/01 09:45:32;;;;;;;30.13;9.93;;;;;;;12.16;78.41;100875.94;4994167;28;20031;-51
2023/06/01 09:48:20;;;;;;;42.45;11.18;;;;;;;12.00;79.36;100877.28;4993674;28;20109;-53
2023/06/01 09:50:47;;;;;;;39.83;10.65;;;;;;;12.07;79.48;100877.22;4993671;28;20026;-53
2023/06/01 09:53:14;;;;;;;34.65;9.80;;;;;;;12.12;79.21;100882.78;4993555;28;20092;-53
2023/06/01 09:56:02;;;;;;;36.80;9.70;;;;;;;12.09;78.96;100873.28;4993760;28;20162;-52
2023/06/01 09:58:28;;;;;;;43.42;10.40;;;;;;;12.08;78.79;100870.81;4993518;28;20022;-53
2023/06/01 10:00:55;;;;;;;34.28;10.43;;;;;;;12.10;79.00;100866.91;4993516;28;20057;-52
2023/06/01 10:03:22;;;;;;;31.85;9.15;;;;;;;12.12;79.20;100866.69;4993318;28;20041;-53
2023/06/01 10:05:50;;;;;;;29.67;10.23;;;;;;;12.12;79.19;100864.00;4993381;28;20034;-54
2023/06/01 10:08:18;;;;;;;28.88;9.88;;;;;;;12.01;79.44;100862.00;4993574;28;20109;-52
2023/06/01 10:10:47;;;;;;;33.33;10.35;;;;;;;12.01;79.13;100867.34;4993483;28;20026;-53
2023/06/01 10:13:14;;;;;;;38.00;9.35;;;;;;;12.01;79.09;100867.34;4993372;28;20478;-53
2023/06/01 10:15:41;;;;;;;41.22;10.15;;;;;;;11.88;79.58;100868.22;4993450;28;20022;-53
2023/06/01 10:18:08;;;;;;;37.42;10.38;;;;;;;11.87;79.57;100870.09;4994832;28;20035;-53
2023/06/01 10:20:35;;;;;;;42.00;11.20;;;;;;;11.89;79.74;100872.59;4997504;28;20030;-52
2023/06/01 10:23:03;;;;;;;43.80;10.20;;;;;;;11.85;79.97;100866.81;4998637;28;20054;-53
2023/06/01 10:25:43;;;;;;;35.55;10.48;;;;;;;11.86;80.02;100868.44;4998455;28;20034;-52
2023/06/01 10:28:11;;;;;;;38.50;9.75;;;;;;;11.87;80.34;100870.09;4998003;28;20390;-52
2023/06/01 10:30:38;;;;;;;42.75;10.70;;;;;;;11.80;80.57;100873.81;4997443;28;20028;-53
2023/06/01 10:33:05;;;;;;;33.95;9.93;;;;;;;11.83;80.23;100879.63;4997238;28;20022;-53
2023/06/01 10:35:32;;;;;;;37.83;10.82;;;;;;;11.95;79.56;100876.25;4997007;28;20336;-53
2023/06/01 10:38:09;;;;;;;32.35;9.20;;;;;;;11.89;80.25;100877.94;4997031;28;20034;-51
2023/06/01 10:40:36;;;;;;;39.60;10.52;;;;;;;11.88;80.38;100877.13;4997152;28;20041;-54
2023/06/01 10:43:03;;;;;;;36.58;9.90;;;;;;;11.91;80.41;100880.41;4996847;28;20026;-52
2023/06/01 10:45:36;;;;;;;39.45;10.13;;;;;;;11.94;80.66;100875.44;4997224;28;20413;-53
2023/06/01 10:48:03;;;;;;;34.13;11.10;;;;;;;11.91;80.53;100872.34;4996896;28;20464;-53
2023/06/01 10:50:30;;;;;;;43.08;10.07;;;;;;;11.87;80.97;100874.63;4996740;28;20493;-52
2023/06/01 10:53:16;;;;;;;39.80;11.15;;;;;;;11.93;80.45;100875.63;4996855;28;20426;-54
2023/06/01 10:55:43;;;;;;;44.95;11.13;;;;;;;11.89;80.69;100870.72;4996609;28;20344;-50
2023/06/01 10:58:23;;;;;;;41.03;11.20;;;;;;;11.92;80.67;100874.81;4996743;28;20018;-53
2023/06/01 11:00:51;;;;;;;33.42;10.43;;;;;;;11.91;80.75;100875.84;4996628;28;20073;-53
2023/06/01 11:03:47;;;;;;;35.03;10.02;;;;;;;11.85;80.92;100887.44;4996624;28;20121;-54
2023/06/01 11:06:35;;;;;;;30.58;10.93;;;;;;;11.91;80.75;100891.94;4996616;28;20387;-53
2023/06/01 11:09:06;;;;;;;33.50;10.68;;;;;;;11.90;80.38;100884.94;4996486;28;20415;-52
2023/06/01 11:11:50;;;;;;;34.85;10.63;;;;;;;11.91;80.45;100893.81;4996459;28;20094;-52
2023/06/01 11:14:21;;;;;;;35.00;10.05;;;;;;;11.78;80.76;100887.44;4996568;28;20076;-53
2023/06/01 11:16:47;;;;;;;37.42;10.30;;;;;;;11.92;80.26;100892.78;4996387;28;20030;-52